sensor_id;sensor_type;location;lat;lon;timestamp;P1;durP1;ratioP1;P2;durP2;ratioP2
39502;SDS011;26970;49.900;10.774;2023-02-15T00:01:27;64.82;;;17.00;;
39502;SDS011;26970;49.900;10.774;2023-02-15T00:03:52;125.15;;;17.65;;
39502;SDS011;26970;49.900;10.774;2023-02-15T00:06:18;143.70;;;18.25;;
39502;SDS011;26970;49.900;10.774;2023-02-15T00:08:44;94.55;;;16.50;;
39502;SDS011;26970;49.900;10.774;2023-02-15T00:11:10;148.35;;;16.50;;
39502;SDS011;26970;49.900;10.774;2023-02-15T00:13:40;118.78;;;16.70;;
39502;SDS011;26970;49.900;10.774;2023-02-15T00:16:06;172.00;;;18.92;;
39502;SDS011;26970;49.900;10.774;2023-02-15T00:18:36;120.35;;;17.55;;
39502;SDS011;26970;49.900;10.774;2023-02-15T00:21:09;152.43;;;18.52;;
39502;SDS011;26970;49.900;10.774;2023-02-15T00:23:35;218.52;;;20.20;;
39502;SDS011;26970;49.900;10.774;2023-02-15T00:26:09;159.93;;;17.15;;
39502;SDS011;26970;49.900;10.774;2023-02-15T00:28:36;121.80;;;17.13;;
39502;SDS011;26970;49.900;10.774;2023-02-15T00:31:02;162.75;;;20.02;;
39502;SDS011;26970;49.900;10.774;2023-02-15T00:33:32;103.22;;;15.20;;
39502;SDS011;26970;49.900;10.774;2023-02-15T00:35:58;122.80;;;16.35;;
39502;SDS011;26970;49.900;10.774;2023-02-15T00:38:25;122.15;;;17.25;;
39502;SDS011;26970;49.900;10.774;2023-02-15T00:40:52;232.35;;;18.98;;
39502;SDS011;26970;49.900;10.774;2023-02-15T00:43:19;164.10;;;16.50;;
39502;SDS011;26970;49.900;10.774;2023-02-15T00:45:45;200.27;;;16.85;;
39502;SDS011;26970;49.900;10.774;2023-02-15T00:48:11;212.32;;;16.35;;
39502;SDS011;26970;49.900;10.774;2023-02-15T00:50:36;152.45;;;16.55;;
39502;SDS011;26970;49.900;10.774;2023-02-15T00:53:02;240.88;;;18.92;;
39502;SDS011;26970;49.900;10.774;2023-02-15T00:55:27;118.53;;;13.30;;
39502;SDS011;26970;49.900;10.774;2023-02-15T00:57:53;128.70;;;14.57;;
39502;SDS011;26970;49.900;10.774;2023-02-15T01:00:19;128.95;;;14.43;;
39502;SDS011;26970;49.900;10.774;2023-02-15T01:02:44;68.75;;;13.43;;
39502;SDS011;26970;49.900;10.774;2023-02-15T01:05:10;228.88;;;16.63;;
39502;SDS011;26970;49.900;10.774;2023-02-15T01:07:35;107.70;;;12.95;;
39502;SDS011;26970;49.900;10.774;2023-02-15T01:10:01;31.80;;;11.93;;
39502;SDS011;26970;49.900;10.774;2023-02-15T01:12:27;89.10;;;12.02;;
39502;SDS011;26970;49.900;10.774;2023-02-15T01:14:52;110.22;;;14.05;;
39502;SDS011;26970;49.900;10.774;2023-02-15T01:17:18;61.00;;;13.10;;
39502;SDS011;26970;49.900;10.774;2023-02-15T01:19:44;109.60;;;13.77;;
39502;SDS011;26970;49.900;10.774;2023-02-15T01:22:09;60.97;;;12.93;;
39502;SDS011;26970;49.900;10.774;2023-02-15T01:24:35;75.90;;;13.48;;
39502;SDS011;26970;49.900;10.774;2023-02-15T01:27:00;72.60;;;12.05;;
39502;SDS011;26970;49.900;10.774;2023-02-15T01:29:26;78.65;;;12.50;;
39502;SDS011;26970;49.900;10.774;2023-02-15T01:31:51;103.18;;;13.98;;
39502;SDS011;26970;49.900;10.774;2023-02-15T01:34:17;117.05;;;14.63;;
39502;SDS011;26970;49.900;10.774;2023-02-15T01:36:43;60.80;;;11.52;;
39502;SDS011;26970;49.900;10.774;2023-02-15T01:39:08;112.15;;;14.73;;
39502;SDS011;26970;49.900;10.774;2023-02-15T01:41:35;65.13;;;12.65;;
39502;SDS011;26970;49.900;10.774;2023-02-15T01:44:01;103.50;;;13.77;;
39502;SDS011;26970;49.900;10.774;2023-02-15T01:46:30;90.82;;;13.43;;
39502;SDS011;26970;49.900;10.774;2023-02-15T01:49:01;89.10;;;12.85;;
39502;SDS011;26970;49.900;10.774;2023-02-15T01:51:31;77.88;;;11.82;;
39502;SDS011;26970;49.900;10.774;2023-02-15T01:54:05;70.15;;;13.05;;
39502;SDS011;26970;49.900;10.774;2023-02-15T01:56:38;70.10;;;10.77;;
39502;SDS011;26970;49.900;10.774;2023-02-15T01:59:07;175.20;;;12.93;;
39502;SDS011;26970;49.900;10.774;2023-02-15T02:01:37;125.85;;;12.88;;
39502;SDS011;26970;49.900;10.774;2023-02-15T02:06:38;156.10;;;12.88;;
39502;SDS011;26970;49.900;10.774;2023-02-15T02:09:04;87.43;;;10.43;;
39502;SDS011;26970;49.900;10.774;2023-02-15T02:11:30;138.82;;;12.52;;
39502;SDS011;26970;49.900;10.774;2023-02-15T02:13:57;151.77;;;11.52;;
39502;SDS011;26970;49.900;10.774;2023-02-15T02:27:47;80.85;;;11.93;;
39502;SDS011;26970;49.900;10.774;2023-02-15T02:36:12;266.50;;;15.77;;
39502;SDS011;26970;49.900;10.774;2023-02-15T02:44:19;150.80;;;11.70;;
39502;SDS011;26970;49.900;10.774;2023-02-15T02:46:55;52.10;;;10.48;;
39502;SDS011;26970;49.900;10.774;2023-02-15T02:49:37;95.22;;;12.18;;
39502;SDS011;26970;49.900;10.774;2023-02-15T02:52:07;89.93;;;11.93;;
39502;SDS011;26970;49.900;10.774;2023-02-15T02:54:53;65.82;;;11.57;;
39502;SDS011;26970;49.900;10.774;2023-02-15T02:57:20;62.20;;;11.63;;
39502;SDS011;26970;49.900;10.774;2023-02-15T02:59:48;172.70;;;16.45;;
39502;SDS011;26970;49.900;10.774;2023-02-15T03:02:17;66.18;;;12.07;;
39502;SDS011;26970;49.900;10.774;2023-02-15T03:04:49;62.28;;;11.65;;
39502;SDS011;26970;49.900;10.774;2023-02-15T03:07:23;58.63;;;10.82;;
39502;SDS011;26970;49.900;10.774;2023-02-15T03:09:53;88.07;;;11.98;;
39502;SDS011;26970;49.900;10.774;2023-02-15T03:12:27;234.38;;;15.40;;
39502;SDS011;26970;49.900;10.774;2023-02-15T03:15:05;72.68;;;11.90;;
39502;SDS011;26970;49.900;10.774;2023-02-15T03:17:37;61.38;;;11.98;;
39502;SDS011;26970;49.900;10.774;2023-02-15T03:20:20;104.30;;;11.25;;
39502;SDS011;26970;49.900;10.774;2023-02-15T03:23:03;36.25;;;11.43;;
39502;SDS011;26970;49.900;10.774;2023-02-15T03:25:33;55.67;;;12.85;;
39502;SDS011;26970;49.900;10.774;2023-02-15T03:28:02;141.60;;;14.38;;
39502;SDS011;26970;49.900;10.774;2023-02-15T03:30:32;73.97;;;11.52;;
39502;SDS011;26970;49.900;10.774;2023-02-15T03:33:00;189.70;;;14.82;;
39502;SDS011;26970;49.900;10.774;2023-02-15T03:35:30;165.85;;;15.15;;
39502;SDS011;26970;49.900;10.774;2023-02-15T03:38:19;102.78;;;13.77;;
39502;SDS011;26970;49.900;10.774;2023-02-15T03:40:53;97.32;;;12.50;;
39502;SDS011;26970;49.900;10.774;2023-02-15T03:46:24;161.63;;;14.50;;
39502;SDS011;26970;49.900;10.774;2023-02-15T03:48:57;158.30;;;13.25;;
39502;SDS011;26970;49.900;10.774;2023-02-15T03:51:35;59.33;;;13.32;;
39502;SDS011;26970;49.900;10.774;2023-02-15T03:54:07;50.40;;;12.52;;
39502;SDS011;26970;49.900;10.774;2023-02-15T03:56:35;136.60;;;15.57;;
39502;SDS011;26970;49.900;10.774;2023-02-15T03:59:03;84.05;;;13.60;;
39502;SDS011;26970;49.900;10.774;2023-02-15T04:04:38;109.50;;;14.57;;
39502;SDS011;26970;49.900;10.774;2023-02-15T04:07:07;80.97;;;12.18;;
39502;SDS011;26970;49.900;10.774;2023-02-15T04:09:34;77.22;;;12.50;;
39502;SDS011;26970;49.900;10.774;2023-02-15T04:12:18;75.10;;;11.60;;
39502;SDS011;26970;49.900;10.774;2023-02-15T04:14:44;139.70;;;14.43;;
39502;SDS011;26970;49.900;10.774;2023-02-15T04:17:28;97.25;;;13.60;;
39502;SDS011;26970;49.900;10.774;2023-02-15T04:19:54;118.13;;;13.55;;
39502;SDS011;26970;49.900;10.774;2023-02-15T04:22:38;97.43;;;12.57;;
39502;SDS011;26970;49.900;10.774;2023-02-15T04:25:22;108.43;;;13.77;;
39502;SDS011;26970;49.900;10.774;2023-02-15T04:27:49;121.93;;;14.75;;
39502;SDS011;26970;49.900;10.774;2023-02-15T04:30:18;108.57;;;13.10;;
39502;SDS011;26970;49.900;10.774;2023-02-15T04:32:45;93.18;;;12.93;;
39502;SDS011;26970;49.900;10.774;2023-02-15T04:35:11;114.38;;;13.27;;
39502;SDS011;26970;49.900;10.774;2023-02-15T04:37:37;118.38;;;13.38;;
39502;SDS011;26970;49.900;10.774;2023-02-15T04:40:05;62.53;;;12.43;;
39502;SDS011;26970;49.900;10.774;2023-02-15T04:42:32;52.25;;;11.05;;
39502;SDS011;26970;49.900;10.774;2023-02-15T04:44:58;80.70;;;12.07;;
39502;SDS011;26970;49.900;10.774;2023-02-15T04:47:23;136.20;;;14.25;;
39502;SDS011;26970;49.900;10.774;2023-02-15T04:49:49;130.27;;;14.07;;
39502;SDS011;26970;49.900;10.774;2023-02-15T04:52:15;133.75;;;14.90;;
39502;SDS011;26970;49.900;10.774;2023-02-15T04:54:42;80.60;;;12.27;;
39502;SDS011;26970;49.900;10.774;2023-02-15T04:57:08;102.03;;;12.98;;
39502;SDS011;26970;49.900;10.774;2023-02-15T04:59:34;70.18;;;14.10;;
39502;SDS011;26970;49.900;10.774;2023-02-15T05:01:59;86.18;;;12.88;;
39502;SDS011;26970;49.900;10.774;2023-02-15T05:04:25;82.55;;;12.05;;
39502;SDS011;26970;49.900;10.774;2023-02-15T05:06:51;114.50;;;14.90;;
39502;SDS011;26970;49.900;10.774;2023-02-15T05:09:16;154.65;;;15.20;;
39502;SDS011;26970;49.900;10.774;2023-02-15T05:11:42;83.65;;;11.73;;
39502;SDS011;26970;49.900;10.774;2023-02-15T05:14:08;58.80;;;11.68;;
39502;SDS011;26970;49.900;10.774;2023-02-15T05:16:33;54.03;;;11.77;;
39502;SDS011;26970;49.900;10.774;2023-02-15T05:18:59;107.30;;;15.07;;
39502;SDS011;26970;49.900;10.774;2023-02-15T05:21:25;80.65;;;14.13;;
39502;SDS011;26970;49.900;10.774;2023-02-15T05:23:51;90.32;;;13.68;;
39502;SDS011;26970;49.900;10.774;2023-02-15T05:26:21;149.80;;;15.55;;
39502;SDS011;26970;49.900;10.774;2023-02-15T05:29:06;140.75;;;14.85;;
39502;SDS011;26970;49.900;10.774;2023-02-15T05:31:33;148.60;;;15.65;;
39502;SDS011;26970;49.900;10.774;2023-02-15T05:34:00;86.45;;;12.27;;
39502;SDS011;26970;49.900;10.774;2023-02-15T05:36:26;93.28;;;13.15;;
39502;SDS011;26970;49.900;10.774;2023-02-15T05:38:53;143.40;;;16.63;;
39502;SDS011;26970;49.900;10.774;2023-02-15T05:41:18;144.25;;;14.60;;
39502;SDS011;26970;49.900;10.774;2023-02-15T05:43:44;197.00;;;17.52;;
39502;SDS011;26970;49.900;10.774;2023-02-15T05:46:09;108.15;;;15.45;;
39502;SDS011;26970;49.900;10.774;2023-02-15T05:48:35;96.40;;;15.02;;
39502;SDS011;26970;49.900;10.774;2023-02-15T05:53:28;110.50;;;13.57;;
39502;SDS011;26970;49.900;10.774;2023-02-15T05:55:55;85.07;;;15.23;;
39502;SDS011;26970;49.900;10.774;2023-02-15T05:58:27;160.32;;;17.95;;
39502;SDS011;26970;49.900;10.774;2023-02-15T06:00:55;168.45;;;17.08;;
39502;SDS011;26970;49.900;10.774;2023-02-15T06:03:21;139.90;;;17.25;;
39502;SDS011;26970;49.900;10.774;2023-02-15T06:05:48;119.80;;;16.55;;
39502;SDS011;26970;49.900;10.774;2023-02-15T06:08:14;113.38;;;15.82;;
39502;SDS011;26970;49.900;10.774;2023-02-15T06:10:40;121.10;;;16.08;;
39502;SDS011;26970;49.900;10.774;2023-02-15T06:13:06;125.40;;;16.00;;
39502;SDS011;26970;49.900;10.774;2023-02-15T06:15:31;159.18;;;18.20;;
39502;SDS011;26970;49.900;10.774;2023-02-15T06:17:57;161.05;;;16.95;;
39502;SDS011;26970;49.900;10.774;2023-02-15T06:20:23;124.93;;;15.13;;
39502;SDS011;26970;49.900;10.774;2023-02-15T06:22:48;80.15;;;16.05;;
39502;SDS011;26970;49.900;10.774;2023-02-15T06:25:14;149.73;;;16.10;;
39502;SDS011;26970;49.900;10.774;2023-02-15T06:27:43;131.50;;;16.00;;
39502;SDS011;26970;49.900;10.774;2023-02-15T06:30:09;92.22;;;15.35;;
39502;SDS011;26970;49.900;10.774;2023-02-15T06:32:35;105.78;;;15.65;;
39502;SDS011;26970;49.900;10.774;2023-02-15T06:35:01;109.80;;;19.42;;
39502;SDS011;26970;49.900;10.774;2023-02-15T06:37:27;166.38;;;17.58;;
39502;SDS011;26970;49.900;10.774;2023-02-15T06:39:52;111.50;;;14.43;;
39502;SDS011;26970;49.900;10.774;2023-02-15T06:42:18;146.75;;;16.73;;
39502;SDS011;26970;49.900;10.774;2023-02-15T06:44:44;130.88;;;15.48;;
39502;SDS011;26970;49.900;10.774;2023-02-15T06:47:10;137.77;;;16.80;;
39502;SDS011;26970;49.900;10.774;2023-02-15T06:49:36;107.28;;;15.57;;
39502;SDS011;26970;49.900;10.774;2023-02-15T06:52:02;95.50;;;14.93;;
39502;SDS011;26970;49.900;10.774;2023-02-15T06:54:28;111.68;;;16.48;;
39502;SDS011;26970;49.900;10.774;2023-02-15T06:56:54;271.70;;;19.67;;
39502;SDS011;26970;49.900;10.774;2023-02-15T06:59:20;240.35;;;19.55;;
39502;SDS011;26970;49.900;10.774;2023-02-15T07:01:46;109.25;;;14.32;;
39502;SDS011;26970;49.900;10.774;2023-02-15T07:04:11;207.25;;;19.42;;
39502;SDS011;26970;49.900;10.774;2023-02-15T07:06:37;162.48;;;15.52;;
39502;SDS011;26970;49.900;10.774;2023-02-15T07:09:02;83.85;;;10.38;;
39502;SDS011;26970;49.900;10.774;2023-02-15T07:11:29;164.73;;;16.02;;
39502;SDS011;26970;49.900;10.774;2023-02-15T07:14:13;149.00;;;15.55;;
39502;SDS011;26970;49.900;10.774;2023-02-15T07:16:38;64.75;;;13.93;;
39502;SDS011;26970;49.900;10.774;2023-02-15T07:19:04;115.22;;;15.07;;
39502;SDS011;26970;49.900;10.774;2023-02-15T07:21:30;135.02;;;13.82;;
39502;SDS011;26970;49.900;10.774;2023-02-15T07:23:56;96.00;;;14.98;;
39502;SDS011;26970;49.900;10.774;2023-02-15T07:26:22;115.75;;;15.05;;
39502;SDS011;26970;49.900;10.774;2023-02-15T07:28:48;156.20;;;16.80;;
39502;SDS011;26970;49.900;10.774;2023-02-15T07:31:14;141.85;;;15.15;;
39502;SDS011;26970;49.900;10.774;2023-02-15T07:33:39;83.35;;;16.42;;
39502;SDS011;26970;49.900;10.774;2023-02-15T07:36:05;121.22;;;16.20;;
39502;SDS011;26970;49.900;10.774;2023-02-15T07:38:33;52.67;;;14.10;;
39502;SDS011;26970;49.900;10.774;2023-02-15T07:41:00;74.95;;;15.20;;
39502;SDS011;26970;49.900;10.774;2023-02-15T07:43:27;93.82;;;15.57;;
39502;SDS011;26970;49.900;10.774;2023-02-15T07:45:54;111.07;;;15.02;;
39502;SDS011;26970;49.900;10.774;2023-02-15T07:48:23;89.63;;;15.48;;
39502;SDS011;26970;49.900;10.774;2023-02-15T07:50:48;51.35;;;13.15;;
39502;SDS011;26970;49.900;10.774;2023-02-15T07:53:14;102.40;;;16.25;;
39502;SDS011;26970;49.900;10.774;2023-02-15T07:55:40;117.63;;;18.13;;
39502;SDS011;26970;49.900;10.774;2023-02-15T07:58:05;85.47;;;18.48;;
39502;SDS011;26970;49.900;10.774;2023-02-15T08:00:31;105.88;;;18.25;;
39502;SDS011;26970;49.900;10.774;2023-02-15T08:03:16;64.07;;;16.23;;
39502;SDS011;26970;49.900;10.774;2023-02-15T08:05:43;98.03;;;16.15;;
39502;SDS011;26970;49.900;10.774;2023-02-15T08:08:10;95.07;;;14.95;;
39502;SDS011;26970;49.900;10.774;2023-02-15T08:16:48;52.00;;;13.80;;
39502;SDS011;26970;49.900;10.774;2023-02-15T08:21:41;73.38;;;15.52;;
39502;SDS011;26970;49.900;10.774;2023-02-15T08:24:09;56.65;;;14.32;;
39502;SDS011;26970;49.900;10.774;2023-02-15T08:26:36;84.15;;;15.60;;
39502;SDS011;26970;49.900;10.774;2023-02-15T08:29:03;51.97;;;14.25;;
39502;SDS011;26970;49.900;10.774;2023-02-15T08:31:31;78.63;;;14.88;;
39502;SDS011;26970;49.900;10.774;2023-02-15T08:33:58;84.60;;;15.13;;
39502;SDS011;26970;49.900;10.774;2023-02-15T08:36:25;55.38;;;14.55;;
39502;SDS011;26970;49.900;10.774;2023-02-15T08:38:53;52.35;;;13.73;;
39502;SDS011;26970;49.900;10.774;2023-02-15T08:43:46;130.38;;;16.48;;
39502;SDS011;26970;49.900;10.774;2023-02-15T08:46:13;89.57;;;16.05;;
39502;SDS011;26970;49.900;10.774;2023-02-15T08:48:40;67.35;;;15.43;;
39502;SDS011;26970;49.900;10.774;2023-02-15T08:51:07;98.05;;;14.40;;
39502;SDS011;26970;49.900;10.774;2023-02-15T08:53:40;96.95;;;14.80;;
39502;SDS011;26970;49.900;10.774;2023-02-15T08:56:09;51.22;;;14.27;;
39502;SDS011;26970;49.900;10.774;2023-02-15T08:58:35;50.47;;;14.57;;
39502;SDS011;26970;49.900;10.774;2023-02-15T09:01:07;47.25;;;16.33;;
39502;SDS011;26970;49.900;10.774;2023-02-15T09:03:37;51.42;;;15.48;;
39502;SDS011;26970;49.900;10.774;2023-02-15T09:06:03;48.35;;;16.52;;
39502;SDS011;26970;49.900;10.774;2023-02-15T09:08:29;81.18;;;17.35;;
39502;SDS011;26970;49.900;10.774;2023-02-15T09:11:04;138.77;;;16.77;;
39502;SDS011;26970;49.900;10.774;2023-02-15T09:13:37;108.22;;;18.17;;
39502;SDS011;26970;49.900;10.774;2023-02-15T09:16:05;67.10;;;14.60;;
39502;SDS011;26970;49.900;10.774;2023-02-15T09:18:32;62.10;;;15.35;;
39502;SDS011;26970;49.900;10.774;2023-02-15T09:21:04;99.85;;;17.73;;
39502;SDS011;26970;49.900;10.774;2023-02-15T09:23:41;57.85;;;18.58;;
39502;SDS011;26970;49.900;10.774;2023-02-15T09:26:10;54.10;;;16.33;;
39502;SDS011;26970;49.900;10.774;2023-02-15T09:28:37;61.65;;;17.67;;
39502;SDS011;26970;49.900;10.774;2023-02-15T09:33:36;62.88;;;16.42;;
39502;SDS011;26970;49.900;10.774;2023-02-15T09:36:12;40.05;;;15.98;;
39502;SDS011;26970;49.900;10.774;2023-02-15T09:38:46;51.88;;;17.08;;
39502;SDS011;26970;49.900;10.774;2023-02-15T09:43:57;53.95;;;17.52;;
39502;SDS011;26970;49.900;10.774;2023-02-15T09:46:45;40.53;;;17.50;;
39502;SDS011;26970;49.900;10.774;2023-02-15T09:52:22;35.05;;;16.67;;
39502;SDS011;26970;49.900;10.774;2023-02-15T09:55:22;40.40;;;17.45;;
39502;SDS011;26970;49.900;10.774;2023-02-15T09:58:26;41.42;;;16.48;;
39502;SDS011;26970;49.900;10.774;2023-02-15T10:01:19;33.33;;;15.80;;
39502;SDS011;26970;49.900;10.774;2023-02-15T10:17:50;36.05;;;17.20;;
39502;SDS011;26970;49.900;10.774;2023-02-15T10:25:41;40.75;;;16.92;;
39502;SDS011;26970;49.900;10.774;2023-02-15T10:29:05;29.73;;;14.75;;
39502;SDS011;26970;49.900;10.774;2023-02-15T10:31:22;35.05;;;16.63;;
39502;SDS011;26970;49.900;10.774;2023-02-15T10:33:51;38.85;;;18.23;;
39502;SDS011;26970;49.900;10.774;2023-02-15T10:51:10;41.67;;;18.50;;
39502;SDS011;26970;49.900;10.774;2023-02-15T10:54:05;47.38;;;18.27;;
39502;SDS011;26970;49.900;10.774;2023-02-15T10:56:55;40.10;;;19.38;;
39502;SDS011;26970;49.900;10.774;2023-02-15T11:04:51;38.30;;;18.88;;
39502;SDS011;26970;49.900;10.774;2023-02-15T11:07:26;40.08;;;18.00;;
39502;SDS011;26970;49.900;10.774;2023-02-15T11:12:43;41.75;;;19.52;;
39502;SDS011;26970;49.900;10.774;2023-02-15T11:15:15;37.95;;;19.50;;
39502;SDS011;26970;49.900;10.774;2023-02-15T11:17:47;37.75;;;18.67;;
39502;SDS011;26970;49.900;10.774;2023-02-15T11:20:25;40.03;;;18.88;;
39502;SDS011;26970;49.900;10.774;2023-02-15T11:22:52;43.05;;;19.00;;
39502;SDS011;26970;49.900;10.774;2023-02-15T11:25:19;44.00;;;19.65;;
39502;SDS011;26970;49.900;10.774;2023-02-15T11:27:59;40.53;;;20.65;;
39502;SDS011;26970;49.900;10.774;2023-02-15T11:30:36;37.92;;;18.48;;
39502;SDS011;26970;49.900;10.774;2023-02-15T11:33:18;40.37;;;18.77;;
39502;SDS011;26970;49.900;10.774;2023-02-15T11:35:58;43.25;;;19.63;;
39502;SDS011;26970;49.900;10.774;2023-02-15T11:38:29;42.22;;;18.33;;
39502;SDS011;26970;49.900;10.774;2023-02-15T11:41:20;38.15;;;19.05;;
39502;SDS011;26970;49.900;10.774;2023-02-15T11:43:54;37.83;;;18.95;;
39502;SDS011;26970;49.900;10.774;2023-02-15T11:46:25;41.40;;;18.73;;
39502;SDS011;26970;49.900;10.774;2023-02-15T11:48:51;41.40;;;19.73;;
39502;SDS011;26970;49.900;10.774;2023-02-15T11:51:17;39.92;;;20.20;;
39502;SDS011;26970;49.900;10.774;2023-02-15T11:53:45;38.40;;;18.52;;
39502;SDS011;26970;49.900;10.774;2023-02-15T11:56:21;38.95;;;18.42;;
39502;SDS011;26970;49.900;10.774;2023-02-15T12:01:36;39.20;;;18.73;;
39502;SDS011;26970;49.900;10.774;2023-02-15T12:06:55;38.28;;;18.77;;
39502;SDS011;26970;49.900;10.774;2023-02-15T12:09:48;35.70;;;18.70;;
39502;SDS011;26970;49.900;10.774;2023-02-15T12:12:31;40.13;;;17.02;;
39502;SDS011;26970;49.900;10.774;2023-02-15T12:14:58;36.97;;;18.08;;
39502;SDS011;26970;49.900;10.774;2023-02-15T12:17:26;38.20;;;18.90;;
39502;SDS011;26970;49.900;10.774;2023-02-15T12:19:55;39.90;;;19.27;;
39502;SDS011;26970;49.900;10.774;2023-02-15T12:22:26;40.60;;;19.25;;
39502;SDS011;26970;49.900;10.774;2023-02-15T12:24:55;39.13;;;19.27;;
39502;SDS011;26970;49.900;10.774;2023-02-15T12:29:59;35.75;;;17.80;;
39502;SDS011;26970;49.900;10.774;2023-02-15T12:32:49;39.72;;;18.90;;
39502;SDS011;26970;49.900;10.774;2023-02-15T12:35:28;38.25;;;18.92;;
39502;SDS011;26970;49.900;10.774;2023-02-15T12:38:03;35.67;;;18.35;;
39502;SDS011;26970;49.900;10.774;2023-02-15T12:40:35;33.65;;;16.90;;
39502;SDS011;26970;49.900;10.774;2023-02-15T12:43:01;35.70;;;18.13;;
39502;SDS011;26970;49.900;10.774;2023-02-15T12:45:34;35.70;;;17.23;;
39502;SDS011;26970;49.900;10.774;2023-02-15T12:48:15;37.50;;;17.27;;
39502;SDS011;26970;49.900;10.774;2023-02-15T12:50:43;35.20;;;17.55;;
39502;SDS011;26970;49.900;10.774;2023-02-15T12:56:00;34.65;;;17.75;;
39502;SDS011;26970;49.900;10.774;2023-02-15T12:58:36;36.67;;;18.25;;
39502;SDS011;26970;49.900;10.774;2023-02-15T13:01:04;40.38;;;18.58;;
39502;SDS011;26970;49.900;10.774;2023-02-15T13:06:23;39.60;;;19.05;;
39502;SDS011;26970;49.900;10.774;2023-02-15T13:08:50;37.45;;;18.23;;
39502;SDS011;26970;49.900;10.774;2023-02-15T13:11:22;37.00;;;17.92;;
39502;SDS011;26970;49.900;10.774;2023-02-15T13:14:00;36.95;;;18.90;;
39502;SDS011;26970;49.900;10.774;2023-02-15T13:16:31;33.78;;;17.92;;
39502;SDS011;26970;49.900;10.774;2023-02-15T13:19:09;73.25;;;33.10;;
39502;SDS011;26970;49.900;10.774;2023-02-15T13:21:40;42.70;;;22.67;;
39502;SDS011;26970;49.900;10.774;2023-02-15T13:24:17;38.25;;;18.45;;
39502;SDS011;26970;49.900;10.774;2023-02-15T13:27:04;37.25;;;18.50;;
39502;SDS011;26970;49.900;10.774;2023-02-15T13:29:31;42.53;;;19.15;;
39502;SDS011;26970;49.900;10.774;2023-02-15T13:32:05;46.15;;;19.83;;
39502;SDS011;26970;49.900;10.774;2023-02-15T13:34:37;40.67;;;18.23;;
39502;SDS011;26970;49.900;10.774;2023-02-15T13:37:15;37.30;;;19.73;;
39502;SDS011;26970;49.900;10.774;2023-02-15T13:47:37;41.92;;;20.52;;
39502;SDS011;26970;49.900;10.774;2023-02-15T14:03:19;48.85;;;25.02;;
39502;SDS011;26970;49.900;10.774;2023-02-15T14:17:38;37.08;;;17.83;;
39502;SDS011;26970;49.900;10.774;2023-02-15T14:20:18;37.15;;;18.40;;
39502;SDS011;26970;49.900;10.774;2023-02-15T14:23:15;38.92;;;19.55;;
39502;SDS011;26970;49.900;10.774;2023-02-15T14:25:54;39.90;;;20.10;;
39502;SDS011;26970;49.900;10.774;2023-02-15T14:28:27;33.75;;;17.83;;
39502;SDS011;26970;49.900;10.774;2023-02-15T14:30:59;37.92;;;18.25;;
39502;SDS011;26970;49.900;10.774;2023-02-15T14:33:40;34.92;;;18.20;;
39502;SDS011;26970;49.900;10.774;2023-02-15T14:36:13;36.88;;;19.13;;
39502;SDS011;26970;49.900;10.774;2023-02-15T14:44:17;36.53;;;17.38;;
39502;SDS011;26970;49.900;10.774;2023-02-15T14:47:04;40.80;;;17.75;;
39502;SDS011;26970;49.900;10.774;2023-02-15T14:49:36;35.30;;;17.75;;
39502;SDS011;26970;49.900;10.774;2023-02-15T14:52:09;36.33;;;17.92;;
39502;SDS011;26970;49.900;10.774;2023-02-15T15:07:09;31.92;;;17.88;;
39502;SDS011;26970;49.900;10.774;2023-02-15T15:09:46;35.13;;;18.45;;
39502;SDS011;26970;49.900;10.774;2023-02-15T15:14:54;35.08;;;18.52;;
39502;SDS011;26970;49.900;10.774;2023-02-15T15:22:30;35.45;;;18.73;;
39502;SDS011;26970;49.900;10.774;2023-02-15T15:25:43;36.15;;;18.08;;
39502;SDS011;26970;49.900;10.774;2023-02-15T15:28:00;35.70;;;17.85;;
39502;SDS011;26970;49.900;10.774;2023-02-15T15:49:34;36.95;;;19.90;;
39502;SDS011;26970;49.900;10.774;2023-02-15T15:52:03;42.85;;;21.15;;
39502;SDS011;26970;49.900;10.774;2023-02-15T15:54:45;44.63;;;20.40;;
39502;SDS011;26970;49.900;10.774;2023-02-15T15:57:16;41.92;;;19.52;;
39502;SDS011;26970;49.900;10.774;2023-02-15T15:59:58;42.85;;;21.08;;
39502;SDS011;26970;49.900;10.774;2023-02-15T16:02:24;43.20;;;21.60;;
39502;SDS011;26970;49.900;10.774;2023-02-15T16:04:51;41.80;;;18.88;;
39502;SDS011;26970;49.900;10.774;2023-02-15T16:10:00;46.80;;;20.27;;
39502;SDS011;26970;49.900;10.774;2023-02-15T16:12:27;45.50;;;20.00;;
39502;SDS011;26970;49.900;10.774;2023-02-15T16:14:55;47.67;;;22.60;;
39502;SDS011;26970;49.900;10.774;2023-02-15T16:17:25;44.25;;;20.80;;
39502;SDS011;26970;49.900;10.774;2023-02-15T16:19:56;42.67;;;19.95;;
39502;SDS011;26970;49.900;10.774;2023-02-15T16:22:30;39.80;;;19.98;;
39502;SDS011;26970;49.900;10.774;2023-02-15T16:27:52;42.67;;;20.35;;
39502;SDS011;26970;49.900;10.774;2023-02-15T16:35:34;39.42;;;19.90;;
39502;SDS011;26970;49.900;10.774;2023-02-15T16:38:02;43.63;;;20.38;;
39502;SDS011;26970;49.900;10.774;2023-02-15T16:40:41;49.20;;;22.45;;
39502;SDS011;26970;49.900;10.774;2023-02-15T16:43:16;44.72;;;20.80;;
39502;SDS011;26970;49.900;10.774;2023-02-15T16:45:46;46.65;;;22.67;;
39502;SDS011;26970;49.900;10.774;2023-02-15T16:48:17;61.65;;;31.38;;
39502;SDS011;26970;49.900;10.774;2023-02-15T16:50:49;60.72;;;31.23;;
39502;SDS011;26970;49.900;10.774;2023-02-15T16:53:19;167.88;;;92.00;;
39502;SDS011;26970;49.900;10.774;2023-02-15T16:55:48;103.22;;;58.15;;
39502;SDS011;26970;49.900;10.774;2023-02-15T16:58:16;55.80;;;25.63;;
39502;SDS011;26970;49.900;10.774;2023-02-15T17:00:42;63.55;;;28.30;;
39502;SDS011;26970;49.900;10.774;2023-02-15T17:05:42;55.08;;;24.92;;
39502;SDS011;26970;49.900;10.774;2023-02-15T17:08:19;64.88;;;23.70;;
39502;SDS011;26970;49.900;10.774;2023-02-15T17:16:27;55.83;;;20.75;;
39502;SDS011;26970;49.900;10.774;2023-02-15T17:18:56;52.00;;;21.05;;
39502;SDS011;26970;49.900;10.774;2023-02-15T17:21:25;122.60;;;22.13;;
39502;SDS011;26970;49.900;10.774;2023-02-15T17:24:00;61.90;;;21.38;;
39502;SDS011;26970;49.900;10.774;2023-02-15T17:26:32;62.38;;;20.45;;
39502;SDS011;26970;49.900;10.774;2023-02-15T17:31:52;73.97;;;22.17;;
39502;SDS011;26970;49.900;10.774;2023-02-15T17:37:09;167.82;;;22.20;;
39502;SDS011;26970;49.900;10.774;2023-02-15T17:39:47;173.40;;;25.47;;
39502;SDS011;26970;49.900;10.774;2023-02-15T17:42:13;221.98;;;24.55;;
39502;SDS011;26970;49.900;10.774;2023-02-15T17:44:38;177.50;;;24.33;;
39502;SDS011;26970;49.900;10.774;2023-02-15T17:47:04;200.05;;;25.42;;
39502;SDS011;26970;49.900;10.774;2023-02-15T17:49:30;194.10;;;22.95;;
39502;SDS011;26970;49.900;10.774;2023-02-15T17:51:59;298.70;;;28.20;;
39502;SDS011;26970;49.900;10.774;2023-02-15T17:54:28;340.45;;;28.40;;